sensor_id;sensor_type;location;lat;lon;timestamp;pressure;altitude;pressure_sealevel;temperature;humidity
9460;BME280;4768;42.664;23.240;2022-09-17T00:01:14;-9856.34;;;15.60;100.00
9460;BME280;4768;42.664;23.240;2022-09-17T00:03:41;-9854.63;;;15.54;100.00
9460;BME280;4768;42.664;23.240;2022-09-17T00:06:11;-9855.78;;;15.58;100.00
9460;BME280;4768;42.664;23.240;2022-09-17T00:08:40;-9856.91;;;15.62;100.00
9460;BME280;4768;42.664;23.240;2022-09-17T00:11:08;-9856.34;;;15.60;100.00
9460;BME280;4768;42.664;23.240;2022-09-17T00:13:35;-9858.03;;;15.66;100.00
9460;BME280;4768;42.664;23.240;2022-09-17T00:16:02;-9855.63;;;15.57;100.00
9460;BME280;4768;42.664;23.240;2022-09-17T00:18:31;-9855.34;;;15.56;100.00
9460;BME280;4768;42.664;23.240;2022-09-17T00:20:58;-9853.22;;;15.49;100.00
9460;BME280;4768;42.664;23.240;2022-09-17T00:23:25;-9859.75;;;15.72;100.00
9460;BME280;4768;42.664;23.240;2022-09-17T00:25:52;-9861.75;;;15.79;100.00
9460;BME280;4768;42.664;23.240;2022-09-17T00:28:18;-9860.91;;;15.76;100.00
9460;BME280;4768;42.664;23.240;2022-09-17T00:30:45;-9858.34;;;15.67;100.00
9460;BME280;4768;42.664;23.240;2022-09-17T00:33:14;-9857.34;;;15.63;100.00
9460;BME280;4768;42.664;23.240;2022-09-17T00:35:43;-9858.91;;;15.69;100.00
9460;BME280;4768;42.664;23.240;2022-09-17T00:38:10;-9859.31;;;15.70;100.00
9460;BME280;4768;42.664;23.240;2022-09-17T00:40:37;-9859.19;;;15.70;100.00
9460;BME280;4768;42.664;23.240;2022-09-17T00:43:09;-9863.19;;;15.84;100.00
9460;BME280;4768;42.664;23.240;2022-09-17T00:45:36;-9867.72;;;15.99;100.00
9460;BME280;4768;42.664;23.240;2022-09-17T00:48:04;-9868.88;;;16.03;100.00
9460;BME280;4768;42.664;23.240;2022-09-17T00:50:35;-9872.84;;;16.17;100.00
9460;BME280;4768;42.664;23.240;2022-09-17T00:53:07;-9871.00;;;16.11;100.00
9460;BME280;4768;42.664;23.240;2022-09-17T00:55:37;-9873.16;;;16.18;100.00
9460;BME280;4768;42.664;23.240;2022-09-17T00:58:06;-9871.56;;;16.13;100.00
9460;BME280;4768;42.664;23.240;2022-09-17T01:00:33;-9870.59;;;16.09;100.00
9460;BME280;4768;42.664;23.240;2022-09-17T01:03:01;-9869.59;;;16.06;100.00
9460;BME280;4768;42.664;23.240;2022-09-17T01:05:33;-9868.72;;;16.03;100.00
9460;BME280;4768;42.664;23.240;2022-09-17T01:08:12;-9866.75;;;15.96;100.00
9460;BME280;4768;42.664;23.240;2022-09-17T01:13:51;-9862.03;;;15.80;100.00
9460;BME280;4768;42.664;23.240;2022-09-17T01:16:35;-9856.47;;;15.60;100.00
9460;BME280;4768;42.664;23.240;2022-09-17T01:19:18;-9855.63;;;15.57;100.00
9460;BME280;4768;42.664;23.240;2022-09-17T01:22:00;-9855.78;;;15.58;100.00
9460;BME280;4768;42.664;23.240;2022-09-17T01:28:13;-9853.78;;;15.51;100.00
9460;BME280;4768;42.664;23.240;2022-09-17T01:31:19;-9855.19;;;15.56;100.00
9460;BME280;4768;42.664;23.240;2022-09-17T01:33:54;-9856.19;;;15.59;100.00
9460;BME280;4768;42.664;23.240;2022-09-17T01:39:30;-9853.06;;;15.48;100.00
9460;BME280;4768;42.664;23.240;2022-09-17T01:42:06;-9853.06;;;15.48;100.00
9460;BME280;4768;42.664;23.240;2022-09-17T01:44:40;-9852.06;;;15.45;100.00
9460;BME280;4768;42.664;23.240;2022-09-17T01:47:15;-9851.78;;;15.44;100.00
9460;BME280;4768;42.664;23.240;2022-09-17T01:49:44;-9851.63;;;15.44;100.00
9460;BME280;4768;42.664;23.240;2022-09-17T01:52:14;-9851.22;;;15.42;100.00
9460;BME280;4768;42.664;23.240;2022-09-17T01:54:43;-9848.38;;;15.32;100.00
9460;BME280;4768;42.664;23.240;2022-09-17T01:57:16;-9850.78;;;15.41;100.00
9460;BME280;4768;42.664;23.240;2022-09-17T01:59:49;-9851.50;;;15.43;100.00
9460;BME280;4768;42.664;23.240;2022-09-17T02:02:22;-9852.22;;;15.46;100.00
9460;BME280;4768;42.664;23.240;2022-09-17T02:04:57;-9854.50;;;15.53;100.00
9460;BME280;4768;42.664;23.240;2022-09-17T02:07:27;-9853.34;;;15.49;100.00
9460;BME280;4768;42.664;23.240;2022-09-17T02:09:59;-9853.63;;;15.50;100.00
9460;BME280;4768;42.664;23.240;2022-09-17T02:12:32;-9853.78;;;15.51;100.00
9460;BME280;4768;42.664;23.240;2022-09-17T02:15:02;-9855.19;;;15.56;100.00
9460;BME280;4768;42.664;23.240;2022-09-17T02:17:36;-9873.28;;;16.19;100.00
9460;BME280;4768;42.664;23.240;2022-09-17T02:20:05;-9939.44;;;18.48;100.00
9460;BME280;4768;42.664;23.240;2022-09-17T02:22:36;-9986.69;;;20.12;100.00
9460;BME280;4768;42.664;23.240;2022-09-17T02:25:09;-10014.69;;;21.09;100.00
9460;BME280;4768;42.664;23.240;2022-09-17T02:27:47;26653.00;;;21.37;100.00
9460;BME280;4768;42.664;23.240;2022-09-17T02:30:15;65536.66;;;21.65;100.00
9460;BME280;4768;42.664;23.240;2022-09-17T02:32:43;98764.69;;;21.72;100.00
9460;BME280;4768;42.664;23.240;2022-09-17T02:35:11;118176.53;;;21.58;100.00
9460;BME280;4768;42.664;23.240;2022-09-17T02:37:39;127913.75;;;21.48;100.00
9460;BME280;4768;42.664;23.240;2022-09-17T02:40:08;46562.00;;;18.65;100.00
9460;BME280;4768;42.664;23.240;2022-09-17T02:42:55;-9896.22;;;16.98;100.00
9460;BME280;4768;42.664;23.240;2022-09-17T02:45:43;-9875.72;;;16.27;100.00
9460;BME280;4768;42.664;23.240;2022-09-17T02:48:34;-9872.44;;;16.16;100.00
9460;BME280;4768;42.664;23.240;2022-09-17T02:51:17;-9869.16;;;16.04;100.00
9460;BME280;4768;42.664;23.240;2022-09-17T02:53:55;-9867.72;;;15.99;100.00
9460;BME280;4768;42.664;23.240;2022-09-17T02:56:39;-9865.03;;;15.90;100.00
9460;BME280;4768;42.664;23.240;2022-09-17T02:59:15;-9861.31;;;15.77;100.00
9460;BME280;4768;42.664;23.240;2022-09-17T03:01:49;-9861.47;;;15.78;100.00
9460;BME280;4768;42.664;23.240;2022-09-17T03:04:21;-9862.75;;;15.82;100.00
9460;BME280;4768;42.664;23.240;2022-09-17T03:06:51;-9862.88;;;15.83;100.00
9460;BME280;4768;42.664;23.240;2022-09-17T03:09:18;-9862.75;;;15.82;100.00
9460;BME280;4768;42.664;23.240;2022-09-17T03:11:45;-9859.91;;;15.72;100.00
9460;BME280;4768;42.664;23.240;2022-09-17T03:14:11;-9855.47;;;15.57;100.00
9460;BME280;4768;42.664;23.240;2022-09-17T03:16:38;-9853.06;;;15.48;100.00
9460;BME280;4768;42.664;23.240;2022-09-17T03:19:05;-9851.78;;;15.44;100.00
9460;BME280;4768;42.664;23.240;2022-09-17T03:21:33;-9852.63;;;15.47;100.00
9460;BME280;4768;42.664;23.240;2022-09-17T03:24:00;-9852.22;;;15.46;100.00
9460;BME280;4768;42.664;23.240;2022-09-17T03:26:27;-9852.78;;;15.48;100.00
9460;BME280;4768;42.664;23.240;2022-09-17T03:28:54;-9853.78;;;15.51;100.00
9460;BME280;4768;42.664;23.240;2022-09-17T03:31:21;-9854.91;;;15.55;100.00
9460;BME280;4768;42.664;23.240;2022-09-17T03:33:47;-9859.19;;;15.70;100.00
9460;BME280;4768;42.664;23.240;2022-09-17T03:36:14;-9860.91;;;15.76;100.00
9460;BME280;4768;42.664;23.240;2022-09-17T03:38:42;-9867.44;;;15.98;100.00
9460;BME280;4768;42.664;23.240;2022-09-17T03:41:09;-9866.44;;;15.95;100.00
9460;BME280;4768;42.664;23.240;2022-09-17T03:43:36;-9868.72;;;16.03;100.00
9460;BME280;4768;42.664;23.240;2022-09-17T03:46:04;-9869.72;;;16.06;100.00
9460;BME280;4768;42.664;23.240;2022-09-17T03:48:32;-9868.03;;;16.00;100.00
9460;BME280;4768;42.664;23.240;2022-09-17T03:51:01;-9867.88;;;16.00;100.00
9460;BME280;4768;42.664;23.240;2022-09-17T03:53:28;-9869.31;;;16.05;100.00
9460;BME280;4768;42.664;23.240;2022-09-17T03:55:58;-9870.72;;;16.10;100.00
9460;BME280;4768;42.664;23.240;2022-09-17T03:58:25;-9871.16;;;16.11;100.00
9460;BME280;4768;42.664;23.240;2022-09-17T04:00:52;-9867.72;;;15.99;100.00
9460;BME280;4768;42.664;23.240;2022-09-17T04:03:22;-9871.28;;;16.12;100.00
9460;BME280;4768;42.664;23.240;2022-09-17T04:05:49;-9871.44;;;16.12;100.00
9460;BME280;4768;42.664;23.240;2022-09-17T04:08:16;-9869.00;;;16.04;100.00
9460;BME280;4768;42.664;23.240;2022-09-17T04:10:43;-9866.75;;;15.96;100.00
9460;BME280;4768;42.664;23.240;2022-09-17T04:13:13;-9868.59;;;16.02;100.00
9460;BME280;4768;42.664;23.240;2022-09-17T04:15:40;-9866.44;;;15.95;100.00
9460;BME280;4768;42.664;23.240;2022-09-17T04:18:07;-9864.88;;;15.90;100.00
9460;BME280;4768;42.664;23.240;2022-09-17T04:20:34;-9863.19;;;15.84;100.00
9460;BME280;4768;42.664;23.240;2022-09-17T04:23:01;-9863.03;;;15.83;100.00
9460;BME280;4768;42.664;23.240;2022-09-17T04:25:27;-9862.47;;;15.81;100.00
9460;BME280;4768;42.664;23.240;2022-09-17T04:27:55;-9864.16;;;15.87;100.00
9460;BME280;4768;42.664;23.240;2022-09-17T04:30:23;-9864.75;;;15.89;100.00
9460;BME280;4768;42.664;23.240;2022-09-17T04:32:50;-9864.03;;;15.87;100.00
9460;BME280;4768;42.664;23.240;2022-09-17T04:35:17;-9864.59;;;15.89;100.00
9460;BME280;4768;42.664;23.240;2022-09-17T04:37:51;-9865.88;;;15.93;100.00
9460;BME280;4768;42.664;23.240;2022-09-17T04:40:17;-9881.84;;;16.48;100.00
9460;BME280;4768;42.664;23.240;2022-09-17T04:42:44;-9888.97;;;16.73;100.00
9460;BME280;4768;42.664;23.240;2022-09-17T04:45:11;-9894.94;;;16.94;100.00
9460;BME280;4768;42.664;23.240;2022-09-17T04:47:39;-9897.50;;;17.03;100.00
9460;BME280;4768;42.664;23.240;2022-09-17T04:50:07;-9895.09;;;16.94;100.00
9460;BME280;4768;42.664;23.240;2022-09-17T04:52:34;-9899.50;;;17.10;100.00
9460;BME280;4768;42.664;23.240;2022-09-17T04:55:00;-9900.09;;;17.12;100.00
9460;BME280;4768;42.664;23.240;2022-09-17T04:57:27;-9902.50;;;17.20;100.00
9460;BME280;4768;42.664;23.240;2022-09-17T04:59:54;-9902.22;;;17.19;100.00
9460;BME280;4768;42.664;23.240;2022-09-17T05:02:20;-9897.50;;;17.03;100.00
9460;BME280;4768;42.664;23.240;2022-09-17T05:04:49;-9893.66;;;16.90;100.00
9460;BME280;4768;42.664;23.240;2022-09-17T05:07:16;-9889.25;;;16.74;100.00
9460;BME280;4768;42.664;23.240;2022-09-17T05:09:43;-9887.41;;;16.68;100.00
9460;BME280;4768;42.664;23.240;2022-09-17T05:12:09;-9885.84;;;16.62;100.00
9460;BME280;4768;42.664;23.240;2022-09-17T05:14:36;-9887.53;;;16.68;100.00
9460;BME280;4768;42.664;23.240;2022-09-17T05:17:03;-9886.81;;;16.66;100.00
9460;BME280;4768;42.664;23.240;2022-09-17T05:19:30;-9886.13;;;16.63;100.00
9460;BME280;4768;42.664;23.240;2022-09-17T05:21:58;-9888.25;;;16.71;100.00
9460;BME280;4768;42.664;23.240;2022-09-17T05:24:24;-9889.41;;;16.75;100.00
9460;BME280;4768;42.664;23.240;2022-09-17T05:26:52;-9890.53;;;16.79;100.00
9460;BME280;4768;42.664;23.240;2022-09-17T05:29:19;-9891.81;;;16.83;100.00
9460;BME280;4768;42.664;23.240;2022-09-17T05:31:45;-9889.13;;;16.74;100.00
9460;BME280;4768;42.664;23.240;2022-09-17T05:34:12;-9896.38;;;16.99;100.00
9460;BME280;4768;42.664;23.240;2022-09-17T05:36:39;-9901.78;;;17.18;100.00
9460;BME280;4768;42.664;23.240;2022-09-17T05:39:07;-9907.34;;;17.37;100.00
9460;BME280;4768;42.664;23.240;2022-09-17T05:41:34;-9908.06;;;17.40;100.00
9460;BME280;4768;42.664;23.240;2022-09-17T05:44:01;-9910.50;;;17.48;100.00
9460;BME280;4768;42.664;23.240;2022-09-17T05:46:28;-9908.34;;;17.41;100.00
9460;BME280;4768;42.664;23.240;2022-09-17T05:48:55;-9907.06;;;17.36;100.00
9460;BME280;4768;42.664;23.240;2022-09-17T05:51:22;-9909.50;;;17.44;100.00
9460;BME280;4768;42.664;23.240;2022-09-17T05:53:49;-9909.94;;;17.46;100.00
9460;BME280;4768;42.664;23.240;2022-09-17T05:56:18;-9910.50;;;17.48;100.00
9460;BME280;4768;42.664;23.240;2022-09-17T05:58:46;-9909.94;;;17.46;100.00
9460;BME280;4768;42.664;23.240;2022-09-17T06:01:13;-9911.78;;;17.52;100.00
9460;BME280;4768;42.664;23.240;2022-09-17T06:03:40;-9914.19;;;17.61;100.00
9460;BME280;4768;42.664;23.240;2022-09-17T06:06:07;-9913.78;;;17.59;100.00
9460;BME280;4768;42.664;23.240;2022-09-17T06:08:35;-9915.06;;;17.64;100.00
9460;BME280;4768;42.664;23.240;2022-09-17T06:11:03;-9919.91;;;17.81;100.00
9460;BME280;4768;42.664;23.240;2022-09-17T06:13:32;-9927.31;;;18.06;100.00
9460;BME280;4768;42.664;23.240;2022-09-17T06:15:59;-9931.47;;;18.21;100.00
9460;BME280;4768;42.664;23.240;2022-09-17T06:18:27;-9927.88;;;18.08;100.00
9460;BME280;4768;42.664;23.240;2022-09-17T06:20:56;-9918.91;;;17.77;100.00
9460;BME280;4768;42.664;23.240;2022-09-17T06:23:24;-9910.06;;;17.46;100.00
9460;BME280;4768;42.664;23.240;2022-09-17T06:25:52;-9901.50;;;17.17;100.00
9460;BME280;4768;42.664;23.240;2022-09-17T06:28:20;-9892.81;;;16.87;100.00
9460;BME280;4768;42.664;23.240;2022-09-17T06:30:48;-9893.66;;;16.90;100.00
9460;BME280;4768;42.664;23.240;2022-09-17T06:33:17;-9892.09;;;16.84;100.00
9460;BME280;4768;42.664;23.240;2022-09-17T06:35:44;-9891.81;;;16.83;100.00
9460;BME280;4768;42.664;23.240;2022-09-17T06:38:10;-9892.25;;;16.85;100.00
9460;BME280;4768;42.664;23.240;2022-09-17T06:40:37;-9891.38;;;16.82;100.00
9460;BME280;4768;42.664;23.240;2022-09-17T06:43:04;-9890.69;;;16.79;100.00
9460;BME280;4768;42.664;23.240;2022-09-17T06:45:31;-9888.53;;;16.72;100.00
9460;BME280;4768;42.664;23.240;2022-09-17T06:48:04;-9890.25;;;16.78;100.00
9460;BME280;4768;42.664;23.240;2022-09-17T06:50:30;-9887.69;;;16.69;100.00
9460;BME280;4768;42.664;23.240;2022-09-17T06:52:57;-9886.41;;;16.64;100.00
9460;BME280;4768;42.664;23.240;2022-09-17T06:55:24;-9888.69;;;16.72;100.00
9460;BME280;4768;42.664;23.240;2022-09-17T06:57:52;-9888.81;;;16.73;100.00
9460;BME280;4768;42.664;23.240;2022-09-17T07:00:19;-9889.13;;;16.74;100.00
9460;BME280;4768;42.664;23.240;2022-09-17T07:02:54;-9890.97;;;16.80;100.00
9460;BME280;4768;42.664;23.240;2022-09-17T07:05:22;-9895.66;;;16.96;100.00
9460;BME280;4768;42.664;23.240;2022-09-17T07:07:49;-9903.38;;;17.23;100.00
9460;BME280;4768;42.664;23.240;2022-09-17T07:10:16;-9912.22;;;17.54;100.00
9460;BME280;4768;42.664;23.240;2022-09-17T07:12:43;-9916.91;;;17.70;100.00
9460;BME280;4768;42.664;23.240;2022-09-17T07:15:10;-9919.19;;;17.78;100.00
9460;BME280;4768;42.664;23.240;2022-09-17T07:17:38;-9928.47;;;18.10;100.00
9460;BME280;4768;42.664;23.240;2022-09-17T07:20:05;-9936.03;;;18.37;100.00
9460;BME280;4768;42.664;23.240;2022-09-17T07:22:34;-9942.16;;;18.58;100.00
9460;BME280;4768;42.664;23.240;2022-09-17T07:25:01;-9951.84;;;18.91;100.00
9460;BME280;4768;42.664;23.240;2022-09-17T07:27:29;-9955.16;;;19.03;100.00
9460;BME280;4768;42.664;23.240;2022-09-17T07:29:56;-9953.16;;;18.96;100.00
9460;BME280;4768;42.664;23.240;2022-09-17T07:32:23;-9953.44;;;18.97;100.00
9460;BME280;4768;42.664;23.240;2022-09-17T07:34:50;-9957.00;;;19.09;100.00
9460;BME280;4768;42.664;23.240;2022-09-17T07:37:17;-9951.84;;;18.91;100.00
9460;BME280;4768;42.664;23.240;2022-09-17T07:39:47;-9984.72;;;20.05;100.00
9460;BME280;4768;42.664;23.240;2022-09-17T07:42:13;-9996.56;;;20.46;100.00
9460;BME280;4768;42.664;23.240;2022-09-17T07:44:40;-9978.97;;;19.86;100.00
9460;BME280;4768;42.664;23.240;2022-09-17T07:47:07;-10008.28;;;20.87;100.00
9460;BME280;4768;42.664;23.240;2022-09-17T07:49:34;-10005.56;;;20.78;100.00
9460;BME280;4768;42.664;23.240;2022-09-17T07:52:01;-10006.56;;;20.81;100.00
9460;BME280;4768;42.664;23.240;2022-09-17T07:54:30;-10003.13;;;20.69;100.00
9460;BME280;4768;42.664;23.240;2022-09-17T07:56:59;-10013.13;;;21.04;100.00
9460;BME280;4768;42.664;23.240;2022-09-17T07:59:25;-10026.84;;;21.51;100.00
9460;BME280;4768;42.664;23.240;2022-09-17T08:01:53;-10005.13;;;20.76;100.00
9460;BME280;4768;42.664;23.240;2022-09-17T08:04:20;-9985.41;;;20.08;100.00
9460;BME280;4768;42.664;23.240;2022-09-17T08:06:46;-9991.69;;;20.30;100.00
9460;BME280;4768;42.664;23.240;2022-09-17T08:09:14;-9992.28;;;20.32;100.00
9460;BME280;4768;42.664;23.240;2022-09-17T08:11:41;-9992.41;;;20.32;100.00
9460;BME280;4768;42.664;23.240;2022-09-17T08:14:11;-9995.69;;;20.43;100.00
9460;BME280;4768;42.664;23.240;2022-09-17T08:16:38;-10001.84;;;20.65;100.00
9460;BME280;4768;42.664;23.240;2022-09-17T08:19:05;-10007.28;;;20.84;100.00
9460;BME280;4768;42.664;23.240;2022-09-17T08:21:35;-9992.41;;;20.32;100.00
9460;BME280;4768;42.664;23.240;2022-09-17T08:24:02;-9987.97;;;20.17;100.00
9460;BME280;4768;42.664;23.240;2022-09-17T08:26:29;-10002.41;;;20.67;100.00
9460;BME280;4768;42.664;23.240;2022-09-17T08:28:56;-10017.28;;;21.18;100.00
9460;BME280;4768;42.664;23.240;2022-09-17T08:31:25;-10019.41;;;21.26;100.00
9460;BME280;4768;42.664;23.240;2022-09-17T08:33:52;-10018.84;;;21.24;100.00
9460;BME280;4768;42.664;23.240;2022-09-17T08:36:19;-10019.84;;;21.27;100.00
9460;BME280;4768;42.664;23.240;2022-09-17T08:38:51;-10007.69;;;20.85;100.00
9460;BME280;4768;42.664;23.240;2022-09-17T08:41:23;-10004.12;;;20.73;100.00
9460;BME280;4768;42.664;23.240;2022-09-17T08:44:00;-9993.28;;;20.35;100.00
9460;BME280;4768;42.664;23.240;2022-09-17T08:46:40;-9983.28;;;20.00;100.00
9460;BME280;4768;42.664;23.240;2022-09-17T08:49:13;-9988.69;;;20.19;100.00
9460;BME280;4768;42.664;23.240;2022-09-17T08:51:48;-9997.41;;;20.49;100.00
9460;BME280;4768;42.664;23.240;2022-09-17T08:54:26;-9998.56;;;20.53;100.00
9460;BME280;4768;42.664;23.240;2022-09-17T08:57:08;-9993.84;;;20.37;100.00
9460;BME280;4768;42.664;23.240;2022-09-17T08:59:41;-9989.69;;;20.23;100.00
9460;BME280;4768;42.664;23.240;2022-09-17T09:02:24;-9982.28;;;19.97;100.00
9460;BME280;4768;42.664;23.240;2022-09-17T09:05:02;-9974.13;;;19.69;100.00
9460;BME280;4768;42.664;23.240;2022-09-17T09:07:36;-9977.00;;;19.79;100.00
9460;BME280;4768;42.664;23.240;2022-09-17T09:10:11;-9963.84;;;19.33;100.00
9460;BME280;4768;42.664;23.240;2022-09-17T09:12:39;-9967.13;;;19.44;100.00
9460;BME280;4768;42.664;23.240;2022-09-17T09:15:18;-9957.72;;;19.12;100.00
9460;BME280;4768;42.664;23.240;2022-09-17T09:17:49;-9957.16;;;19.10;100.00
9460;BME280;4768;42.664;23.240;2022-09-17T09:20:23;-9951.72;;;18.91;100.00
9460;BME280;4768;42.664;23.240;2022-09-17T09:22:54;-9948.59;;;18.80;100.00
9460;BME280;4768;42.664;23.240;2022-09-17T09:25:23;-9943.72;;;18.63;100.00
9460;BME280;4768;42.664;23.240;2022-09-17T09:28:06;-9946.88;;;18.74;100.00
9460;BME280;4768;42.664;23.240;2022-09-17T09:30:53;-9944.72;;;18.67;100.00
9460;BME280;4768;42.664;23.240;2022-09-17T09:33:27;-9942.00;;;18.57;100.00
9460;BME280;4768;42.664;23.240;2022-09-17T09:35:56;-9942.44;;;18.59;100.00
9460;BME280;4768;42.664;23.240;2022-09-17T09:38:30;-9941.88;;;18.57;100.00
9460;BME280;4768;42.664;23.240;2022-09-17T09:41:05;-9939.16;;;18.47;100.00
9460;BME280;4768;42.664;23.240;2022-09-17T09:43:38;-9936.88;;;18.40;100.00
9460;BME280;4768;42.664;23.240;2022-09-17T09:46:28;-9931.19;;;18.20;100.00
9460;BME280;4768;42.664;23.240;2022-09-17T09:49:07;-9929.19;;;18.13;100.00
9460;BME280;4768;42.664;23.240;2022-09-17T09:51:48;-9924.47;;;17.96;100.00
9460;BME280;4768;42.664;23.240;2022-09-17T09:54:31;-9925.75;;;18.01;100.00
9460;BME280;4768;42.664;23.240;2022-09-17T09:57:03;-9925.91;;;18.01;100.00
9460;BME280;4768;42.664;23.240;2022-09-17T09:59:32;-9923.31;;;17.92;100.00
9460;BME280;4768;42.664;23.240;2022-09-17T10:02:00;-9921.91;;;17.88;100.00
9460;BME280;4768;42.664;23.240;2022-09-17T10:04:28;-9920.19;;;17.82;100.00
9460;BME280;4768;42.664;23.240;2022-09-17T10:06:59;-9922.34;;;17.89;100.00
9460;BME280;4768;42.664;23.240;2022-09-17T10:09:29;-9920.75;;;17.84;100.00
9460;BME280;4768;42.664;23.240;2022-09-17T10:12:15;-9918.63;;;17.76;100.00
9460;BME280;4768;42.664;23.240;2022-09-17T10:14:44;-9921.63;;;17.87;100.00
9460;BME280;4768;42.664;23.240;2022-09-17T10:17:17;-9915.63;;;17.66;100.00
9460;BME280;4768;42.664;23.240;2022-09-17T10:20:11;-9911.63;;;17.52;100.00
9460;BME280;4768;42.664;23.240;2022-09-17T10:22:39;-9907.50;;;17.38;100.00
9460;BME280;4768;42.664;23.240;2022-09-17T10:25:28;-9908.34;;;17.41;100.00
9460;BME280;4768;42.664;23.240;2022-09-17T10:27:56;-9906.34;;;17.34;100.00
9460;BME280;4768;42.664;23.240;2022-09-17T10:30:24;-9906.22;;;17.33;100.00
9460;BME280;4768;42.664;23.240;2022-09-17T10:33:25;-9906.66;;;17.35;100.00
9460;BME280;4768;42.664;23.240;2022-09-17T10:35:59;-9914.47;;;17.62;100.00
9460;BME280;4768;42.664;23.240;2022-09-17T10:38:29;-9925.19;;;17.99;100.00
9460;BME280;4768;42.664;23.240;2022-09-17T10:41:12;-9922.47;;;17.90;100.00
9460;BME280;4768;42.664;23.240;2022-09-17T10:43:39;-9929.19;;;18.13;100.00
9460;BME280;4768;42.664;23.240;2022-09-17T10:46:09;-9928.47;;;18.10;100.00
9460;BME280;4768;42.664;23.240;2022-09-17T10:48:42;-9930.75;;;18.18;100.00
9460;BME280;4768;42.664;23.240;2022-09-17T10:51:19;-9931.31;;;18.20;100.00
9460;BME280;4768;42.664;23.240;2022-09-17T10:56:53;-9951.56;;;18.90;100.00
9460;BME280;4768;42.664;23.240;2022-09-17T10:59:41;-9956.00;;;19.06;100.00
9460;BME280;4768;42.664;23.240;2022-09-17T11:02:31;-9978.97;;;19.86;100.00
9460;BME280;4768;42.664;23.240;2022-09-17T11:05:12;-9969.72;;;19.53;100.00
9460;BME280;4768;42.664;23.240;2022-09-17T11:07:49;-9982.72;;;19.98;100.00
9460;BME280;4768;42.664;23.240;2022-09-17T11:10:26;-9974.13;;;19.69;100.00
9460;BME280;4768;42.664;23.240;2022-09-17T11:13:06;2168.91;;;20.26;100.00
9460;BME280;4768;42.664;23.240;2022-09-17T11:15:47;-9949.88;;;18.85;100.00
9460;BME280;4768;42.664;23.240;2022-09-17T11:18:34;-9937.75;;;18.42;100.00
9460;BME280;4768;42.664;23.240;2022-09-17T11:21:27;-9952.56;;;18.94;100.00
9460;BME280;4768;42.664;23.240;2022-09-17T11:24:14;-9961.00;;;19.23;100.00
9460;BME280;4768;42.664;23.240;2022-09-17T11:26:48;-9982.13;;;19.96;100.00
9460;BME280;4768;42.664;23.240;2022-09-17T11:29:31;-9985.41;;;20.08;100.00
9460;BME280;4768;42.664;23.240;2022-09-17T11:32:06;1472.63;;;20.30;100.00
9460;BME280;4768;42.664;23.240;2022-09-17T11:34:37;3909.75;;;20.21;100.00
9460;BME280;4768;42.664;23.240;2022-09-17T11:37:10;20672.38;;;20.62;100.00
9460;BME280;4768;42.664;23.240;2022-09-17T11:39:46;19269.94;;;20.51;100.00
9460;BME280;4768;42.664;23.240;2022-09-17T11:42:17;22419.06;;;20.42;100.00
9460;BME280;4768;42.664;23.240;2022-09-17T11:44:49;26276.22;;;20.50;100.00
9460;BME280;4768;42.664;23.240;2022-09-17T11:47:20;18214.53;;;20.16;100.00
9460;BME280;4768;42.664;23.240;2022-09-17T11:49:51;11926.31;;;20.07;100.00
9460;BME280;4768;42.664;23.240;2022-09-17T11:52:22;3217.44;;;19.70;100.00
9460;BME280;4768;42.664;23.240;2022-09-17T11:54:54;1479.16;;;19.67;100.00
9460;BME280;4768;42.664;23.240;2022-09-17T11:57:25;-2684.94;;;19.41;100.00
9460;BME280;4768;42.664;23.240;2022-09-17T11:59:55;-5804.59;;;19.32;100.00
9460;BME280;4768;42.664;23.240;2022-09-17T12:02:27;-7883.72;;;19.32;100.00
9460;BME280;4768;42.664;23.240;2022-09-17T12:05:02;-9959.41;;;19.25;100.00
9460;BME280;4768;42.664;23.240;2022-09-17T12:07:38;-8577.00;;;19.34;100.00
9460;BME280;4768;42.664;23.240;2022-09-17T12:10:32;-8575.56;;;19.29;100.00
9460;BME280;4768;42.664;23.240;2022-09-17T12:13:04;-9957.44;;;19.11;100.00
9460;BME280;4768;42.664;23.240;2022-09-17T12:15:38;-9959.00;;;19.16;100.00
9460;BME280;4768;42.664;23.240;2022-09-17T12:18:17;-9614.34;;;19.29;100.00
9460;BME280;4768;42.664;23.240;2022-09-17T12:20:48;-7882.34;;;19.27;100.00
9460;BME280;4768;42.664;23.240;2022-09-17T12:23:21;-9266.47;;;19.23;100.00
9460;BME280;4768;42.664;23.240;2022-09-17T12:25:55;-9947.31;;;18.76;100.00
9460;BME280;4768;42.664;23.240;2022-09-17T12:28:28;-9946.16;;;18.72;100.00
9460;BME280;4768;42.664;23.240;2022-09-17T12:31:03;-9956.28;;;19.07;100.00
9460;BME280;4768;42.664;23.240;2022-09-17T12:33:35;-9949.28;;;18.83;100.00
9460;BME280;4768;42.664;23.240;2022-09-17T12:39:27;-9936.75;;;18.39;100.00
9460;BME280;4768;42.664;23.240;2022-09-17T12:42:06;-9941.31;;;18.55;100.00
9460;BME280;4768;42.664;23.240;2022-09-17T12:45:00;-9931.75;;;18.22;100.00
9460;BME280;4768;42.664;23.240;2022-09-17T12:47:53;-9926.59;;;18.04;100.00
9460;BME280;4768;42.664;23.240;2022-09-17T12:50:32;-9921.63;;;17.87;100.00
9460;BME280;4768;42.664;23.240;2022-09-17T12:53:21;-9926.31;;;18.03;100.00
9460;BME280;4768;42.664;23.240;2022-09-17T12:56:01;-9932.19;;;18.23;100.00
9460;BME280;4768;42.664;23.240;2022-09-17T12:58:41;-9925.75;;;18.01;100.00
9460;BME280;4768;42.664;23.240;2022-09-17T13:01:18;-9918.34;;;17.75;100.00
9460;BME280;4768;42.664;23.240;2022-09-17T13:03:50;-9916.78;;;17.70;100.00
9460;BME280;4768;42.664;23.240;2022-09-17T13:09:39;-9912.22;;;17.54;100.00
9460;BME280;4768;42.664;23.240;2022-09-17T13:12:24;-9920.06;;;17.81;100.00
9460;BME280;4768;42.664;23.240;2022-09-17T13:18:09;-9929.91;;;18.15;100.00
9460;BME280;4768;42.664;23.240;2022-09-17T13:20:42;-9930.75;;;18.18;100.00
9460;BME280;4768;42.664;23.240;2022-09-17T13:23:11;-9929.91;;;18.15;100.00
9460;BME280;4768;42.664;23.240;2022-09-17T13:25:48;-9926.47;;;18.03;100.00
9460;BME280;4768;42.664;23.240;2022-09-17T13:28:17;-9932.88;;;18.26;100.00
9460;BME280;4768;42.664;23.240;2022-09-17T13:31:01;-9937.47;;;18.42;100.00
9460;BME280;4768;42.664;23.240;2022-09-17T13:36:37;-9936.16;;;18.37;100.00
9460;BME280;4768;42.664;23.240;2022-09-17T13:39:06;-9925.91;;;18.01;100.00
9460;BME280;4768;42.664;23.240;2022-09-17T13:41:36;-9921.34;;;17.86;100.00
9460;BME280;4768;42.664;23.240;2022-09-17T13:44:04;-9928.03;;;18.09;100.00
9460;BME280;4768;42.664;23.240;2022-09-17T13:46:33;-9934.59;;;18.32;100.00
9460;BME280;4768;42.664;23.240;2022-09-17T13:49:02;-9931.88;;;18.22;100.00